N414YH KGJT-4V0
Flight info
| Callsign | N414YH |
|---|---|
| Flight time | N/A |
| Altitude | 16000 |
| Route | JNC TESSY |
| Aircraft | C414/L-SBDFGRY/S |
Departure
| Time | 2026-05-07 19:56 |
|---|---|
| Airport | Grand Junction Regional Airport (KGJT) |
Arrival
| Time | N/A |
|---|---|
| Airport | 4V0 |
| Time | Latitude | Longitude | Altitude | Speed | Heading |
|---|---|---|---|---|---|
| 2026-05-07 19:40 | 39.11677 | -108.52037 | 4835 ft | 0 kts | 232° |
| 2026-05-07 19:49 | 39.11686 | -108.52054 | 4835 ft | 4 kts | 2° |
| 2026-05-07 19:49 | 39.11727 | -108.52047 | 4834 ft | 7 kts | 40° |
| 2026-05-07 19:49 | 39.11773 | -108.52067 | 4834 ft | 10 kts | 325° |
| 2026-05-07 19:49 | 39.11784 | -108.52076 | 4834 ft | 0 kts | 325° |
| 2026-05-07 19:51 | 39.11790 | -108.52081 | 4834 ft | 5 kts | 324° |
| 2026-05-07 19:51 | 39.11833 | -108.52069 | 4834 ft | 9 kts | 36° |
| 2026-05-07 19:51 | 39.11881 | -108.52027 | 4835 ft | 9 kts | 29° |
| 2026-05-07 19:51 | 39.11943 | -108.51979 | 4835 ft | 9 kts | 34° |
| 2026-05-07 19:52 | 39.11959 | -108.51964 | 4835 ft | 0 kts | 35° |
| 2026-05-07 19:52 | 39.11976 | -108.51927 | 4837 ft | 12 kts | 95° |
| 2026-05-07 19:52 | 39.11924 | -108.51816 | 4838 ft | 14 kts | 124° |
| 2026-05-07 19:52 | 39.11870 | -108.51716 | 4838 ft | 13 kts | 124° |
| 2026-05-07 19:53 | 39.11835 | -108.51652 | 4840 ft | 14 kts | 126° |
| 2026-05-07 19:53 | 39.11798 | -108.51543 | 4850 ft | 0 kts | 65° |
| 2026-05-07 19:54 | 39.11805 | -108.51525 | 4851 ft | 6 kts | 58° |
| 2026-05-07 19:54 | 39.11839 | -108.51473 | 4853 ft | 7 kts | 36° |
| 2026-05-07 19:54 | 39.11883 | -108.51491 | 4849 ft | 0 kts | 310° |
| 2026-05-07 19:55 | 39.11887 | -108.51499 | 4849 ft | 7 kts | 306° |
| 2026-05-07 19:55 | 39.11986 | -108.51681 | 4847 ft | 53 kts | 305° |
| 2026-05-07 19:55 | 39.12302 | -108.52259 | 4849 ft | 103 kts | 305° |
| 2026-05-07 19:55 | 39.12787 | -108.53141 | 4919 ft | 134 kts | 304° |
| 2026-05-07 19:56 | 39.13328 | -108.54160 | 5225 ft | 139 kts | 302° |
| 2026-05-07 19:56 | 39.13859 | -108.55173 | 5596 ft | 133 kts | 302° |
| 2026-05-07 19:56 | 39.14379 | -108.56135 | 5962 ft | 129 kts | 307° |
| 2026-05-07 19:56 | 39.14731 | -108.57169 | 6280 ft | 129 kts | 266° |
| 2026-05-07 19:57 | 39.14434 | -108.58264 | 6636 ft | 134 kts | 242° |
| 2026-05-07 19:57 | 39.13985 | -108.59323 | 6981 ft | 138 kts | 241° |
| 2026-05-07 19:57 | 39.13575 | -108.60472 | 7363 ft | 146 kts | 246° |
| 2026-05-07 19:57 | 39.13103 | -108.61666 | 7754 ft | 149 kts | 243° |
| 2026-05-07 19:58 | 39.12624 | -108.62792 | 8179 ft | 139 kts | 244° |
| 2026-05-07 19:58 | 39.12175 | -108.63880 | 8579 ft | 137 kts | 245° |
| 2026-05-07 19:58 | 39.11740 | -108.64963 | 8959 ft | 135 kts | 245° |
| 2026-05-07 19:58 | 39.11313 | -108.66016 | 9369 ft | 132 kts | 246° |
| 2026-05-07 19:59 | 39.10895 | -108.67051 | 9781 ft | 129 kts | 245° |
| 2026-05-07 19:59 | 39.10474 | -108.68079 | 10111 ft | 132 kts | 245° |
| 2026-05-07 19:59 | 39.10049 | -108.69147 | 10422 ft | 136 kts | 246° |
| 2026-05-07 19:59 | 39.09610 | -108.70241 | 10725 ft | 137 kts | 246° |
| 2026-05-07 20:00 | 39.09166 | -108.71342 | 11043 ft | 139 kts | 246° |
| 2026-05-07 20:00 | 39.08709 | -108.72454 | 11356 ft | 140 kts | 246° |
| 2026-05-07 20:00 | 39.08252 | -108.73587 | 11611 ft | 145 kts | 248° |
| 2026-05-07 20:00 | 39.07777 | -108.74773 | 11868 ft | 153 kts | 247° |
| 2026-05-07 20:01 | 39.07317 | -108.75998 | 12115 ft | 154 kts | 257° |
| 2026-05-07 20:01 | 39.07287 | -108.77345 | 12378 ft | 152 kts | 285° |
| 2026-05-07 20:01 | 39.07747 | -108.78551 | 12633 ft | 151 kts | 310° |
| 2026-05-07 20:01 | 39.08590 | -108.79340 | 12905 ft | 153 kts | 336° |
| 2026-05-07 20:02 | 39.09653 | -108.79569 | 13177 ft | 157 kts | 353° |
| 2026-05-07 20:02 | 39.10752 | -108.79663 | 13444 ft | 158 kts | 352° |
| 2026-05-07 20:02 | 39.11859 | -108.79762 | 13713 ft | 161 kts | 352° |
| 2026-05-07 20:02 | 39.12980 | -108.79858 | 13971 ft | 162 kts | 353° |
| 2026-05-07 20:03 | 39.14111 | -108.79952 | 14213 ft | 163 kts | 352° |
| 2026-05-07 20:03 | 39.15230 | -108.80045 | 14447 ft | 164 kts | 352° |
| 2026-05-07 20:03 | 39.16370 | -108.80144 | 14686 ft | 164 kts | 352° |
| 2026-05-07 20:03 | 39.17504 | -108.80240 | 14920 ft | 162 kts | 352° |
| 2026-05-07 20:04 | 39.18633 | -108.80335 | 15159 ft | 163 kts | 352° |
| 2026-05-07 20:04 | 39.19762 | -108.80431 | 15398 ft | 162 kts | 351° |
| 2026-05-07 20:04 | 39.20891 | -108.80528 | 15640 ft | 162 kts | 351° |
| 2026-05-07 20:04 | 39.22013 | -108.80624 | 15891 ft | 162 kts | 351° |
| 2026-05-07 20:05 | 39.23174 | -108.80723 | 15931 ft | 173 kts | 352° |
| 2026-05-07 20:05 | 39.24404 | -108.80830 | 15940 ft | 182 kts | 352° |
| 2026-05-07 20:05 | 39.25701 | -108.80939 | 15938 ft | 190 kts | 352° |
| 2026-05-07 20:05 | 39.27042 | -108.81052 | 15933 ft | 194 kts | 352° |
| 2026-05-07 20:06 | 39.28398 | -108.81167 | 15933 ft | 196 kts | 352° |
| 2026-05-07 20:06 | 39.29764 | -108.81282 | 15928 ft | 198 kts | 352° |
| 2026-05-07 20:06 | 39.31144 | -108.81400 | 15929 ft | 199 kts | 352° |
| 2026-05-07 20:06 | 39.32530 | -108.81519 | 15924 ft | 200 kts | 352° |
| 2026-05-07 20:07 | 39.33915 | -108.81637 | 15923 ft | 200 kts | 352° |
| 2026-05-07 20:07 | 39.35301 | -108.81755 | 15924 ft | 200 kts | 352° |
| 2026-05-07 20:07 | 39.36699 | -108.81875 | 15919 ft | 200 kts | 352° |
| 2026-05-07 20:07 | 39.38090 | -108.81993 | 15921 ft | 201 kts | 352° |
| 2026-05-07 20:08 | 39.39468 | -108.82112 | 15915 ft | 200 kts | 352° |
| 2026-05-07 20:08 | 39.40821 | -108.82225 | 15912 ft | 189 kts | 352° |
| 2026-05-07 20:08 | 39.42097 | -108.82333 | 15899 ft | 181 kts | 352° |
| 2026-05-07 20:08 | 39.43331 | -108.82437 | 15898 ft | 174 kts | 351° |
| 2026-05-07 20:09 | 39.44523 | -108.82544 | 15898 ft | 171 kts | 351° |
| 2026-05-07 20:09 | 39.45709 | -108.82646 | 15900 ft | 169 kts | 351° |
| 2026-05-07 20:09 | 39.46874 | -108.82748 | 15900 ft | 166 kts | 351° |
| 2026-05-07 20:10 | 39.49170 | -108.82941 | 15899 ft | 166 kts | 351° |
| 2026-05-07 20:10 | 39.50325 | -108.82913 | 15908 ft | 167 kts | 359° |
| 2026-05-07 20:10 | 39.51477 | -108.82776 | 15908 ft | 166 kts | 358° |
| 2026-05-07 20:10 | 39.52632 | -108.82650 | 15906 ft | 166 kts | 359° |
| 2026-05-07 20:11 | 39.53784 | -108.82519 | 15910 ft | 165 kts | 359° |
| 2026-05-07 20:11 | 39.54925 | -108.82313 | 15907 ft | 171 kts | 14° |
| 2026-05-07 20:11 | 39.55891 | -108.81347 | 15914 ft | 180 kts | 39° |
| 2026-05-07 20:11 | 39.56739 | -108.80162 | 15917 ft | 179 kts | 39° |
| 2026-05-07 20:12 | 39.57582 | -108.78977 | 15915 ft | 181 kts | 39° |
| 2026-05-07 20:12 | 39.58433 | -108.77779 | 15915 ft | 180 kts | 39° |
| 2026-05-07 20:12 | 39.59286 | -108.76596 | 15917 ft | 180 kts | 39° |
| 2026-05-07 20:12 | 39.60135 | -108.75403 | 15914 ft | 180 kts | 39° |
| 2026-05-07 20:13 | 39.60988 | -108.74210 | 15906 ft | 180 kts | 38° |
| 2026-05-07 20:13 | 39.61849 | -108.73010 | 15911 ft | 181 kts | 40° |
| 2026-05-07 20:13 | 39.62701 | -108.71828 | 15904 ft | 179 kts | 38° |
| 2026-05-07 20:13 | 39.63562 | -108.70643 | 15910 ft | 182 kts | 39° |
| 2026-05-07 20:14 | 39.64420 | -108.69437 | 15914 ft | 181 kts | 39° |
| 2026-05-07 20:14 | 39.65282 | -108.68236 | 15907 ft | 181 kts | 39° |
| 2026-05-07 20:14 | 39.66140 | -108.67040 | 15914 ft | 182 kts | 39° |
| 2026-05-07 20:14 | 39.67004 | -108.65834 | 15919 ft | 183 kts | 39° |
| 2026-05-07 20:15 | 39.67877 | -108.64615 | 15905 ft | 184 kts | 38° |
| 2026-05-07 20:15 | 39.68743 | -108.63386 | 15911 ft | 184 kts | 39° |
| 2026-05-07 20:15 | 39.69619 | -108.62162 | 15909 ft | 185 kts | 39° |
| 2026-05-07 20:15 | 39.70486 | -108.60958 | 15899 ft | 184 kts | 39° |
| 2026-05-07 20:16 | 39.71359 | -108.59741 | 15907 ft | 185 kts | 39° |
| 2026-05-07 20:16 | 39.72254 | -108.58499 | 15907 ft | 187 kts | 39° |
| 2026-05-07 20:16 | 39.73128 | -108.57283 | 15903 ft | 186 kts | 39° |
| 2026-05-07 20:16 | 39.74002 | -108.56060 | 15908 ft | 185 kts | 39° |
| 2026-05-07 20:17 | 39.74886 | -108.54829 | 15900 ft | 186 kts | 39° |
| 2026-05-07 20:17 | 39.75767 | -108.53601 | 15898 ft | 185 kts | 39° |
| 2026-05-07 20:17 | 39.76645 | -108.52376 | 15896 ft | 185 kts | 39° |
| 2026-05-07 20:17 | 39.77523 | -108.51153 | 15898 ft | 185 kts | 39° |
| 2026-05-07 20:18 | 39.78391 | -108.49934 | 15894 ft | 183 kts | 39° |
| 2026-05-07 20:18 | 39.79261 | -108.48722 | 15890 ft | 183 kts | 39° |
| 2026-05-07 20:18 | 39.80130 | -108.47513 | 15885 ft | 183 kts | 39° |
| 2026-05-07 20:18 | 39.81000 | -108.46305 | 15886 ft | 182 kts | 39° |
| 2026-05-07 20:19 | 39.81857 | -108.45111 | 15889 ft | 179 kts | 39° |
| 2026-05-07 20:19 | 39.82709 | -108.43933 | 15888 ft | 179 kts | 39° |
| 2026-05-07 20:19 | 39.83550 | -108.42765 | 15884 ft | 179 kts | 39° |
| 2026-05-07 20:19 | 39.84397 | -108.41583 | 15888 ft | 178 kts | 39° |
| 2026-05-07 20:20 | 39.85251 | -108.40395 | 15888 ft | 180 kts | 39° |
| 2026-05-07 20:20 | 39.86103 | -108.39201 | 15884 ft | 180 kts | 39° |
| 2026-05-07 20:20 | 39.86956 | -108.38007 | 15886 ft | 180 kts | 39° |
| 2026-05-07 20:20 | 39.87815 | -108.36805 | 15886 ft | 181 kts | 39° |
| 2026-05-07 20:21 | 39.88671 | -108.35608 | 15889 ft | 181 kts | 39° |
| 2026-05-07 20:21 | 39.89529 | -108.34407 | 15886 ft | 181 kts | 39° |
| 2026-05-07 20:21 | 39.90388 | -108.33202 | 15886 ft | 181 kts | 39° |
| 2026-05-07 20:21 | 39.91233 | -108.32014 | 15887 ft | 181 kts | 39° |
| 2026-05-07 20:22 | 39.92089 | -108.30805 | 15887 ft | 181 kts | 39° |
| 2026-05-07 20:22 | 39.92938 | -108.29599 | 15895 ft | 180 kts | 39° |
| 2026-05-07 20:22 | 39.93796 | -108.28397 | 15901 ft | 182 kts | 39° |
| 2026-05-07 20:22 | 39.94661 | -108.27185 | 15906 ft | 183 kts | 39° |
| 2026-05-07 20:23 | 39.95531 | -108.25965 | 15910 ft | 185 kts | 39° |
| 2026-05-07 20:23 | 39.96437 | -108.24710 | 15913 ft | 194 kts | 39° |
| 2026-05-07 20:23 | 39.97380 | -108.23412 | 15919 ft | 199 kts | 39° |
| 2026-05-07 20:23 | 39.98351 | -108.22090 | 15923 ft | 203 kts | 39° |
| 2026-05-07 20:24 | 39.99341 | -108.20747 | 15927 ft | 206 kts | 39° |
| 2026-05-07 20:24 | 40.00337 | -108.19398 | 15931 ft | 207 kts | 39° |
| 2026-05-07 20:24 | 40.01350 | -108.18035 | 15933 ft | 209 kts | 39° |
| 2026-05-07 20:24 | 40.02363 | -108.16673 | 15936 ft | 209 kts | 39° |
| 2026-05-07 20:25 | 40.03381 | -108.15303 | 15940 ft | 210 kts | 40° |
| 2026-05-07 20:25 | 40.04397 | -108.13942 | 15944 ft | 210 kts | 39° |
| 2026-05-07 20:25 | 40.05407 | -108.12582 | 15946 ft | 211 kts | 39° |
| 2026-05-07 20:25 | 40.06425 | -108.11207 | 15951 ft | 211 kts | 39° |
| 2026-05-07 20:26 | 40.07470 | -108.09821 | 15956 ft | 211 kts | 38° |
| 2026-05-07 20:26 | 40.08484 | -108.08464 | 15958 ft | 212 kts | 39° |
| 2026-05-07 20:26 | 40.09512 | -108.07077 | 15953 ft | 213 kts | 39° |
| 2026-05-07 20:26 | 40.10543 | -108.05698 | 15958 ft | 211 kts | 39° |
| 2026-05-07 20:27 | 40.11563 | -108.04323 | 15960 ft | 211 kts | 39° |
| 2026-05-07 20:27 | 40.12588 | -108.02945 | 15957 ft | 211 kts | 39° |
| 2026-05-07 20:27 | 40.13609 | -108.01573 | 15957 ft | 209 kts | 39° |
| 2026-05-07 20:27 | 40.14617 | -108.00203 | 15960 ft | 210 kts | 39° |
| 2026-05-07 20:28 | 40.15629 | -107.98826 | 15962 ft | 210 kts | 39° |
| 2026-05-07 20:28 | 40.16648 | -107.97440 | 15965 ft | 212 kts | 39° |
| 2026-05-07 20:28 | 40.17671 | -107.96051 | 15964 ft | 212 kts | 39° |
| 2026-05-07 20:28 | 40.18704 | -107.94652 | 15955 ft | 214 kts | 39° |
| 2026-05-07 20:29 | 40.19893 | -107.93625 | 15946 ft | 199 kts | 8° |
| 2026-05-07 20:29 | 40.21198 | -107.93750 | 15906 ft | 186 kts | 332° |
| 2026-05-07 20:29 | 40.22145 | -107.94813 | 15664 ft | 180 kts | 304° |
| 2026-05-07 20:29 | 40.22595 | -107.96337 | 15413 ft | 182 kts | 278° |
| 2026-05-07 20:30 | 40.22562 | -107.97975 | 15181 ft | 183 kts | 269° |
| 2026-05-07 20:30 | 40.22498 | -107.99636 | 14939 ft | 182 kts | 272° |
| 2026-05-07 20:30 | 40.22489 | -108.01301 | 14696 ft | 184 kts | 273° |
| 2026-05-07 20:30 | 40.22479 | -108.02975 | 14465 ft | 184 kts | 272° |
| 2026-05-07 20:31 | 40.22473 | -108.04646 | 14221 ft | 182 kts | 273° |
| 2026-05-07 20:31 | 40.22460 | -108.06296 | 13986 ft | 181 kts | 272° |
| 2026-05-07 20:31 | 40.22450 | -108.07943 | 13732 ft | 182 kts | 273° |
| 2026-05-07 20:31 | 40.22440 | -108.09590 | 13457 ft | 179 kts | 272° |
| 2026-05-07 20:32 | 40.22427 | -108.11231 | 13203 ft | 182 kts | 272° |
| 2026-05-07 20:32 | 40.22421 | -108.12883 | 12941 ft | 181 kts | 272° |
| 2026-05-07 20:32 | 40.22410 | -108.14536 | 12683 ft | 181 kts | 272° |
| 2026-05-07 20:32 | 40.22397 | -108.16176 | 12429 ft | 180 kts | 271° |
| 2026-05-07 20:33 | 40.22386 | -108.17805 | 12169 ft | 179 kts | 272° |
| 2026-05-07 20:33 | 40.22373 | -108.19411 | 11920 ft | 178 kts | 272° |
| 2026-05-07 20:33 | 40.22364 | -108.21025 | 11668 ft | 177 kts | 272° |
| 2026-05-07 20:33 | 40.22351 | -108.22630 | 11421 ft | 176 kts | 271° |
| 2026-05-07 20:34 | 40.22339 | -108.24235 | 11172 ft | 176 kts | 271° |
| 2026-05-07 20:34 | 40.22328 | -108.25834 | 10926 ft | 175 kts | 271° |
| 2026-05-07 20:34 | 40.22315 | -108.27427 | 10682 ft | 175 kts | 271° |
| 2026-05-07 20:34 | 40.22302 | -108.29004 | 10438 ft | 173 kts | 271° |
| 2026-05-07 20:35 | 40.22291 | -108.30577 | 10199 ft | 172 kts | 271° |
| 2026-05-07 20:35 | 40.22277 | -108.32142 | 9961 ft | 172 kts | 270° |
| 2026-05-07 20:35 | 40.22265 | -108.33689 | 9700 ft | 169 kts | 271° |
| 2026-05-07 20:35 | 40.22252 | -108.35226 | 9442 ft | 169 kts | 270° |
| 2026-05-07 20:36 | 40.22244 | -108.36252 | 9283 ft | 170 kts | 270° |
| 2026-05-07 20:36 | 40.22228 | -108.37787 | 9032 ft | 168 kts | 270° |
| 2026-05-07 20:36 | 40.22217 | -108.39296 | 8960 ft | 165 kts | 270° |
| 2026-05-07 20:36 | 40.22205 | -108.40808 | 8966 ft | 167 kts | 270° |
| 2026-05-07 20:37 | 40.22190 | -108.42341 | 8966 ft | 170 kts | 270° |
| 2026-05-07 20:37 | 40.22182 | -108.43894 | 8972 ft | 172 kts | 271° |
| 2026-05-07 20:37 | 40.22157 | -108.45449 | 8979 ft | 169 kts | 271° |
| 2026-05-07 20:37 | 40.22141 | -108.46950 | 8955 ft | 161 kts | 271° |
| 2026-05-07 20:38 | 40.22085 | -108.48384 | 8952 ft | 155 kts | 259° |
| 2026-05-07 20:38 | 40.21625 | -108.49623 | 8966 ft | 148 kts | 242° |
| 2026-05-07 20:38 | 40.21098 | -108.50725 | 8955 ft | 135 kts | 244° |
| 2026-05-07 20:38 | 40.20631 | -108.51725 | 8947 ft | 124 kts | 245° |
| 2026-05-07 20:39 | 40.20196 | -108.52651 | 8951 ft | 121 kts | 245° |
| 2026-05-07 20:39 | 40.19741 | -108.53612 | 8940 ft | 126 kts | 243° |
| 2026-05-07 20:39 | 40.19275 | -108.54608 | 8800 ft | 129 kts | 243° |
| 2026-05-07 20:39 | 40.18808 | -108.55583 | 8622 ft | 122 kts | 243° |
| 2026-05-07 20:40 | 40.18375 | -108.56500 | 8468 ft | 116 kts | 243° |
| 2026-05-07 20:40 | 40.17954 | -108.57394 | 8301 ft | 113 kts | 243° |
| 2026-05-07 20:40 | 40.17541 | -108.58258 | 8170 ft | 112 kts | 241° |
| 2026-05-07 20:40 | 40.17111 | -108.59126 | 8016 ft | 114 kts | 243° |
| 2026-05-07 20:41 | 40.16700 | -108.59978 | 7875 ft | 107 kts | 242° |
| 2026-05-07 20:41 | 40.16304 | -108.60792 | 7729 ft | 107 kts | 242° |
| 2026-05-07 20:41 | 40.15901 | -108.61611 | 7593 ft | 107 kts | 242° |
| 2026-05-07 20:41 | 40.15500 | -108.62417 | 7447 ft | 108 kts | 242° |
| 2026-05-07 20:42 | 40.15098 | -108.63256 | 7335 ft | 112 kts | 239° |
| 2026-05-07 20:42 | 40.14660 | -108.64149 | 7185 ft | 119 kts | 241° |
| 2026-05-07 20:42 | 40.14218 | -108.65047 | 7028 ft | 115 kts | 240° |
| 2026-05-07 20:42 | 40.13786 | -108.65935 | 6876 ft | 117 kts | 242° |
| 2026-05-07 20:43 | 40.13356 | -108.66818 | 6715 ft | 115 kts | 240° |
| 2026-05-07 20:43 | 40.12921 | -108.67693 | 6565 ft | 115 kts | 242° |
| 2026-05-07 20:43 | 40.12506 | -108.68539 | 6438 ft | 112 kts | 241° |
| 2026-05-07 20:43 | 40.12070 | -108.69449 | 6340 ft | 113 kts | 238° |
| 2026-05-07 20:44 | 40.11647 | -108.70297 | 6369 ft | 112 kts | 239° |
| 2026-05-07 20:44 | 40.11210 | -108.71196 | 6331 ft | 118 kts | 239° |
| 2026-05-07 20:44 | 40.10752 | -108.72085 | 6111 ft | 117 kts | 239° |
| 2026-05-07 20:44 | 40.10293 | -108.72972 | 5876 ft | 119 kts | 236° |
| 2026-05-07 20:45 | 40.09871 | -108.73827 | 5613 ft | 102 kts | 253° |
| 2026-05-07 20:45 | 40.09675 | -108.74703 | 5399 ft | 99 kts | 258° |
| 2026-05-07 20:45 | 40.09528 | -108.75547 | 5304 ft | 86 kts | 259° |
| 2026-05-07 20:45 | 40.09423 | -108.76178 | 5290 ft | 42 kts | 256° |
| 2026-05-07 20:46 | 40.09364 | -108.76310 | 5289 ft | 11 kts | 173° |
| 2026-05-07 20:46 | 40.09353 | -108.76242 | 5290 ft | 12 kts | 77° |
| 2026-05-07 20:46 | 40.09374 | -108.76117 | 5291 ft | 17 kts | 76° |
| 2026-05-07 20:46 | 40.09403 | -108.75953 | 5294 ft | 20 kts | 80° |
| 2026-05-07 20:47 | 40.09382 | -108.75882 | 5295 ft | 9 kts | 168° |
| 2026-05-07 20:47 | 40.09317 | -108.75852 | 5295 ft | 9 kts | 91° |
| 2026-05-07 20:47 | 40.09338 | -108.75838 | 5295 ft | 0 kts | 347° |
| 2026-05-07 20:47 | 40.09339 | -108.75838 | 5295 ft | 1 kts | 348° |
| 2026-05-07 20:48 | 40.09341 | -108.75839 | 5295 ft | 0 kts | 347° |